Time,TemperatureF,DewpointF,PressureIn,WindDirection,WindDirectionDegrees,WindSpeedMPH,WindSpeedGustMPH,Humidity,HourlyPrecipIn,Conditions,Clouds,dailyrainin,SoftwareType,DateUTC
2013-02-24 00:03:00,70.9,69.4,29.79,ENE,68,0.0,0.0,95,0.00,,,0.00,Wunderground v.1.15,2013-02-23 13:03:00,
2013-02-24 00:08:00,70.7,69.2,29.79,ENE,69,0.0,0.0,95,0.00,,,0.00,Wunderground v.1.15,2013-02-23 13:08:00,
2013-02-24 00:14:00,70.7,69.5,29.79,ENE,69,0.0,0.0,96,0.00,,,0.00,Wunderground v.1.15,2013-02-23 13:14:00,
2013-02-24 00:19:00,70.7,69.5,29.79,ENE,68,0.0,0.0,96,0.00,,,0.00,Wunderground v.1.15,2013-02-23 13:19:00,
2013-02-24 00:25:00,70.8,69.6,29.79,ENE,69,0.0,0.0,96,0.00,,,0.00,Wunderground v.1.15,2013-02-23 13:25:00,
2013-02-24 00:30:00,70.7,69.5,29.79,North,-999,0.0,0.0,96,0.00,,,-99.99,WeatherLink 5.9.3,2013-02-23 13:30:00,
2013-02-24 00:36:00,70.7,69.5,29.78,NE,46,0.0,0.0,96,0.00,,,0.00,Wunderground v.1.15,2013-02-23 13:36:00,
2013-02-24 00:41:00,70.6,69.4,29.78,NE,44,0.0,0.0,96,0.00,,,0.00,Wunderground v.1.15,2013-02-23 13:41:00,
2013-02-24 00:46:00,70.5,69.3,29.79,NE,41,0.0,0.0,96,0.00,,,0.00,Wunderground v.1.15,2013-02-23 13:46:00,
2013-02-24 00:52:00,70.4,69.2,29.79,WNW,285,0.0,0.0,96,0.00,,,0.00,Wunderground v.1.15,2013-02-23 13:52:00,
2013-02-24 00:57:00,70.4,69.2,29.78,WNW,285,0.0,0.0,96,0.00,,,0.00,Wunderground v.1.15,2013-02-23 13:57:00,
2013-02-24 01:03:00,70.4,69.2,29.79,West,281,1.0,1.0,96,0.00,,,0.00,Wunderground v.1.15,2013-02-23 14:03:00,
2013-02-24 01:08:00,70.4,69.2,29.79,WNW,282,0.0,1.0,96,0.00,,,0.00,Wunderground v.1.15,2013-02-23 14:08:00,
2013-02-24 01:13:00,70.5,69.3,29.79,WNW,282,0.0,0.0,96,0.00,,,0.00,Wunderground v.1.15,2013-02-23 14:13:00,
2013-02-24 01:19:00,70.5,69.3,29.79,NE,45,0.0,0.0,96,0.00,,,0.00,Wunderground v.1.15,2013-02-23 14:19:00,
2013-02-24 01:24:00,70.5,69.3,29.79,NE,45,0.0,0.0,96,0.00,,,0.00,Wunderground v.1.15,2013-02-23 14:24:00,
2013-02-24 01:31:00,70.5,69.3,29.79,NE,45,0.0,1.0,96,0.00,,,-99.99,WeatherLink 5.9.3,2013-02-23 14:31:00,
2013-02-24 01:36:00,70.5,69.3,29.79,NE,45,0.0,0.0,96,0.00,,,0.00,Wunderground v.1.15,2013-02-23 14:36:00,
2013-02-24 01:42:00,70.5,69.3,29.80,NE,45,0.0,0.0,96,0.00,,,0.00,Wunderground v.1.15,2013-02-23 14:42:00,
2013-02-24 01:47:00,70.5,69.3,29.80,NE,45,0.0,1.0,96,0.00,,,0.00,Wunderground v.1.15,2013-02-23 14:47:00,
2013-02-24 01:52:00,70.3,69.1,29.80,NE,45,0.0,0.0,96,0.00,,,0.00,Wunderground v.1.15,2013-02-23 14:52:00,
2013-02-24 01:58:00,70.2,69.0,29.79,NNW,333,0.0,0.0,96,0.00,,,0.00,Wunderground v.1.15,2013-02-23 14:58:00,
2013-02-24 02:03:00,70.0,68.8,29.79,NNW,331,0.0,0.0,96,0.00,,,0.00,Wunderground v.1.15,2013-02-23 15:03:00,
2013-02-24 02:08:00,69.9,68.7,29.80,NNW,330,0.0,0.0,96,0.00,,,0.00,Wunderground v.1.15,2013-02-23 15:08:00,
2013-02-24 02:13:00,69.9,68.7,29.80,NNW,330,0.0,0.0,96,0.00,,,0.00,Wunderground v.1.15,2013-02-23 15:13:00,
2013-02-24 02:18:00,69.7,68.5,29.80,NNW,331,0.0,0.0,96,0.00,,,0.00,Wunderground v.1.15,2013-02-23 15:18:00,
2013-02-24 02:23:00,69.5,68.3,29.80,NNW,330,0.0,0.0,96,0.00,,,0.00,Wunderground v.1.15,2013-02-23 15:23:00,
2013-02-24 02:28:00,69.3,68.1,29.80,NNW,330,0.0,0.0,96,0.00,,,0.00,Wunderground v.1.15,2013-02-23 15:28:00,
2013-02-24 02:33:00,69.2,68.0,29.80,NNW,330,0.0,0.0,96,0.00,,,0.00,Wunderground v.1.15,2013-02-23 15:33:00,
2013-02-24 02:38:00,69.0,67.8,29.80,NNW,331,0.0,0.0,96,0.00,,,0.00,Wunderground v.1.15,2013-02-23 15:38:00,
2013-02-24 02:43:00,68.9,67.7,29.80,NNW,330,0.0,0.0,96,0.00,,,0.00,Wunderground v.1.15,2013-02-23 15:43:00,
2013-02-24 02:48:00,68.9,67.7,29.80,NNW,330,0.0,0.0,96,0.00,,,0.00,Wunderground v.1.15,2013-02-23 15:48:00,
2013-02-24 02:53:00,68.7,67.5,29.80,NNW,330,0.0,0.0,96,0.00,,,0.00,Wunderground v.1.15,2013-02-23 15:53:00,
2013-02-24 02:58:00,68.6,67.4,29.80,NNW,331,0.0,0.0,96,0.00,,,0.00,Wunderground v.1.15,2013-02-23 15:58:00,
2013-02-24 03:03:00,68.5,67.3,29.80,NNW,330,0.0,0.0,96,0.00,,,0.00,Wunderground v.1.15,2013-02-23 16:03:00,
2013-02-24 03:08:00,68.4,67.2,29.80,NNW,330,0.0,0.0,96,0.00,,,0.00,Wunderground v.1.15,2013-02-23 16:08:00,
2013-02-24 03:13:00,68.4,67.5,29.80,NNW,330,0.0,0.0,97,0.00,,,0.00,Wunderground v.1.15,2013-02-23 16:13:00,
2013-02-24 03:18:00,68.4,67.5,29.80,NNW,330,0.0,0.0,97,0.00,,,0.00,Wunderground v.1.15,2013-02-23 16:18:00,
2013-02-24 03:23:00,68.4,67.5,29.80,NNW,330,0.0,0.0,97,0.00,,,0.00,Wunderground v.1.15,2013-02-23 16:23:00,
2013-02-24 03:28:00,68.3,67.4,29.79,NNW,330,0.0,0.0,97,0.00,,,0.00,Wunderground v.1.15,2013-02-23 16:28:00,
2013-02-24 03:33:00,68.3,67.4,29.80,NNW,330,0.0,0.0,97,0.00,,,0.00,Wunderground v.1.15,2013-02-23 16:33:00,
2013-02-24 03:38:00,68.4,67.5,29.80,NNW,330,0.0,0.0,97,0.00,,,0.00,Wunderground v.1.15,2013-02-23 16:38:00,
2013-02-24 03:43:00,68.5,67.6,29.80,WNW,286,1.0,1.0,97,0.00,,,0.00,Wunderground v.1.15,2013-02-23 16:43:00,
2013-02-24 03:49:00,68.6,67.7,29.80,WNW,300,0.0,1.0,97,0.00,,,0.00,Wunderground v.1.15,2013-02-23 16:49:00,
2013-02-24 03:54:00,68.6,67.7,29.80,WNW,300,0.0,0.0,97,0.00,,,0.00,Wunderground v.1.15,2013-02-23 16:54:00,
2013-02-24 03:59:00,68.7,67.8,29.80,WNW,297,0.0,1.0,97,0.00,,,0.00,Wunderground v.1.15,2013-02-23 16:59:00,
2013-02-24 04:04:00,68.7,67.8,29.80,WNW,296,0.0,1.0,97,0.00,,,0.00,Wunderground v.1.15,2013-02-23 17:04:00,
2013-02-24 04:09:00,68.6,67.7,29.81,WNW,295,0.0,1.0,97,0.00,,,0.00,Wunderground v.1.15,2013-02-23 17:09:00,
2013-02-24 04:15:00,68.5,67.6,29.80,NNE,32,0.0,0.0,97,0.00,,,0.00,Wunderground v.1.15,2013-02-23 17:15:00,
2013-02-24 04:20:00,68.4,67.5,29.81,NNE,32,0.0,0.0,97,0.00,,,0.00,Wunderground v.1.15,2013-02-23 17:20:00,
2013-02-24 04:25:00,68.1,67.2,29.81,NNE,32,0.0,0.0,97,0.00,,,0.00,Wunderground v.1.15,2013-02-23 17:25:00,
2013-02-24 04:30:00,68.1,67.2,29.81,NW,318,0.0,0.0,97,0.00,,,0.00,Wunderground v.1.15,2013-02-23 17:30:00,
2013-02-24 04:35:00,68.1,67.2,29.81,NW,318,0.0,1.0,97,0.00,,,0.00,Wunderground v.1.15,2013-02-23 17:35:00,
2013-02-24 04:40:00,68.1,67.2,29.81,NW,318,0.0,0.0,97,0.00,,,0.00,Wunderground v.1.15,2013-02-23 17:40:00,
2013-02-24 04:45:00,68.0,67.1,29.81,NW,318,0.0,1.0,97,0.00,,,0.00,Wunderground v.1.15,2013-02-23 17:45:00,
2013-02-24 04:50:00,68.0,67.1,29.81,NW,318,0.0,0.0,97,0.00,,,0.00,Wunderground v.1.15,2013-02-23 17:50:00,
2013-02-24 04:55:00,68.0,67.1,29.81,NW,318,0.0,1.0,97,0.00,,,0.00,Wunderground v.1.15,2013-02-23 17:55:00,
2013-02-24 05:00:00,68.0,67.1,29.81,North,-999,0.0,0.0,97,0.00,,,-99.99,WeatherLink 5.9.3,2013-02-23 18:00:00,
2013-02-24 05:05:00,67.6,66.7,29.82,NW,318,0.0,0.0,97,0.00,,,0.00,Wunderground v.1.15,2013-02-23 18:05:00,
2013-02-24 05:10:00,67.8,66.9,29.82,North,-999,0.0,0.0,97,0.00,,,-99.99,WeatherLink 5.9.3,2013-02-23 18:10:00,
2013-02-24 05:15:00,67.4,66.5,29.83,NW,318,0.0,0.0,97,0.00,,,0.00,Wunderground v.1.15,2013-02-23 18:15:00,
2013-02-24 05:20:00,67.3,66.4,29.83,NW,318,0.0,0.0,97,0.00,,,0.00,Wunderground v.1.15,2013-02-23 18:20:00,
2013-02-24 05:25:00,67.1,66.2,29.83,NW,318,0.0,0.0,97,0.00,,,0.00,Wunderground v.1.15,2013-02-23 18:25:00,
2013-02-24 05:30:00,67.3,66.4,29.83,North,-999,0.0,0.0,97,0.00,,,-99.99,WeatherLink 5.9.3,2013-02-23 18:30:00,
2013-02-24 05:35:00,66.8,65.9,29.83,NW,318,0.0,0.0,97,0.00,,,0.00,Wunderground v.1.15,2013-02-23 18:35:00,
2013-02-24 05:40:00,66.7,65.8,29.83,NW,319,0.0,0.0,97,0.00,,,0.00,Wunderground v.1.15,2013-02-23 18:40:00,
2013-02-24 05:45:00,66.6,65.7,29.84,NW,318,0.0,0.0,97,0.00,,,0.00,Wunderground v.1.15,2013-02-23 18:45:00,
2013-02-24 05:51:00,66.7,65.8,29.83,North,-999,0.0,0.0,97,0.00,,,-99.99,WeatherLink 5.9.3,2013-02-23 18:51:00,
2013-02-24 05:56:00,66.6,65.7,29.84,NW,318,0.0,0.0,97,0.00,,,0.00,Wunderground v.1.15,2013-02-23 18:56:00,
2013-02-24 06:01:00,66.5,65.6,29.84,NW,318,0.0,0.0,97,0.00,,,0.00,Wunderground v.1.15,2013-02-23 19:01:00,
2013-02-24 06:06:00,66.5,65.6,29.84,NW,318,0.0,0.0,97,0.00,,,0.00,Wunderground v.1.15,2013-02-23 19:06:00,
2013-02-24 06:11:00,66.6,65.7,29.84,NW,318,0.0,0.0,97,0.00,,,0.00,Wunderground v.1.15,2013-02-23 19:11:00,
2013-02-24 06:16:00,66.5,65.6,29.85,NW,318,0.0,0.0,97,0.00,,,0.00,Wunderground v.1.15,2013-02-23 19:16:00,
2013-02-24 06:21:00,66.2,65.3,29.85,NW,318,0.0,0.0,97,0.00,,,0.00,Wunderground v.1.15,2013-02-23 19:21:00,
2013-02-24 06:26:00,66.4,65.5,29.85,NW,318,0.0,0.0,97,0.00,,,0.00,Wunderground v.1.15,2013-02-23 19:26:00,
2013-02-24 06:31:00,66.8,65.9,29.85,NW,319,0.0,0.0,97,0.00,,,0.00,Wunderground v.1.15,2013-02-23 19:31:00,
2013-02-24 06:36:00,66.9,66.0,29.86,NW,318,0.0,0.0,97,0.00,,,0.00,Wunderground v.1.15,2013-02-23 19:36:00,
2013-02-24 06:41:00,66.8,65.9,29.86,NW,318,0.0,0.0,97,0.00,,,0.00,Wunderground v.1.15,2013-02-23 19:41:00,
2013-02-24 06:46:00,66.8,65.9,29.86,NW,318,0.0,0.0,97,0.00,,,0.00,Wunderground v.1.15,2013-02-23 19:46:00,
2013-02-24 06:51:00,66.7,65.8,29.86,NW,318,0.0,0.0,97,0.00,,,0.00,Wunderground v.1.15,2013-02-23 19:51:00,
2013-02-24 06:56:00,66.6,65.7,29.86,NW,319,0.0,0.0,97,0.00,,,0.00,Wunderground v.1.15,2013-02-23 19:56:00,
2013-02-24 07:01:00,66.6,65.7,29.86,NW,319,0.0,0.0,97,0.00,,,0.00,Wunderground v.1.15,2013-02-23 20:01:00,
2013-02-24 07:06:00,67.1,66.5,29.86,WNW,293,0.0,1.0,98,0.00,,,0.00,Wunderground v.1.15,2013-02-23 20:06:00,
2013-02-24 07:11:00,67.5,66.9,29.86,NW,309,0.0,1.0,98,0.00,,,0.00,Wunderground v.1.15,2013-02-23 20:11:00,
2013-02-24 07:16:00,67.6,67.0,29.87,ENE,65,0.0,1.0,98,0.00,,,0.00,Wunderground v.1.15,2013-02-23 20:16:00,
2013-02-24 07:21:00,67.6,67.0,29.87,ENE,65,0.0,0.0,98,0.00,,,0.00,Wunderground v.1.15,2013-02-23 20:21:00,
2013-02-24 07:26:00,67.9,67.3,29.87,ENE,65,0.0,0.0,98,0.00,,,0.00,Wunderground v.1.15,2013-02-23 20:26:00,
2013-02-24 07:31:00,68.3,67.7,29.88,North,1,0.0,0.0,98,0.00,,,0.00,Wunderground v.1.15,2013-02-23 20:31:00,
2013-02-24 07:36:00,68.6,68.0,29.88,North,1,0.0,0.0,98,0.00,,,0.00,Wunderground v.1.15,2013-02-23 20:36:00,
2013-02-24 07:41:00,69.0,68.4,29.88,North,1,0.0,0.0,98,0.00,,,0.00,Wunderground v.1.15,2013-02-23 20:41:00,
2013-02-24 07:46:00,69.2,68.6,29.88,North,1,0.0,0.0,98,0.00,,,0.00,Wunderground v.1.15,2013-02-23 20:46:00,
2013-02-24 07:51:00,69.4,68.8,29.88,North,1,0.0,0.0,98,0.00,,,0.00,Wunderground v.1.15,2013-02-23 20:51:00,
2013-02-24 07:56:00,69.5,68.9,29.88,North,1,0.0,0.0,98,0.00,,,0.00,Wunderground v.1.15,2013-02-23 20:56:00,
2013-02-24 08:01:00,69.7,69.1,29.88,WNW,295,0.0,0.0,98,0.00,,,0.00,Wunderground v.1.15,2013-02-23 21:01:00,
2013-02-24 08:06:00,70.2,69.6,29.88,WNW,296,0.0,0.0,98,0.00,,,0.00,Wunderground v.1.15,2013-02-23 21:06:00,
2013-02-24 08:11:00,70.4,69.8,29.88,WNW,288,0.0,1.0,98,0.00,,,0.00,Wunderground v.1.15,2013-02-23 21:11:00,
2013-02-24 08:16:00,70.9,70.3,29.89,SSW,199,0.0,1.0,98,0.00,,,0.00,Wunderground v.1.15,2013-02-23 21:16:00,
2013-02-24 08:21:00,71.2,70.6,29.89,SSW,205,0.0,0.0,98,0.00,,,0.00,Wunderground v.1.15,2013-02-23 21:21:00,
2013-02-24 08:26:00,72.4,71.8,29.89,West,260,0.0,1.0,98,0.00,,,0.00,Wunderground v.1.15,2013-02-23 21:26:00,
2013-02-24 08:31:00,72.5,71.9,29.89,SSW,198,0.0,2.0,98,0.00,,,0.00,Wunderground v.1.15,2013-02-23 21:31:00,
2013-02-24 08:36:00,73.1,72.5,29.90,SW,218,0.0,2.0,98,0.00,,,0.00,Wunderground v.1.15,2013-02-23 21:36:00,
2013-02-24 08:41:00,73.1,72.2,29.90,SSE,163,0.0,1.0,97,0.00,,,0.00,Wunderground v.1.15,2013-02-23 21:41:00,
2013-02-24 08:47:00,73.7,72.2,29.90,ESE,102,1.0,2.0,95,0.00,,,0.00,Wunderground v.1.15,2013-02-23 21:47:00,
2013-02-24 08:53:00,74.9,72.7,29.90,ENE,69,1.0,1.0,93,0.00,,,0.00,Wunderground v.1.15,2013-02-23 21:53:00,
2013-02-24 08:58:00,76.0,72.9,29.90,NNE,15,1.0,1.0,90,0.00,,,0.00,Wunderground v.1.15,2013-02-23 21:58:00,
2013-02-24 09:04:00,77.3,72.8,29.90,NE,55,1.0,2.0,86,0.00,,,0.00,Wunderground v.1.15,2013-02-23 22:04:00,
2013-02-24 09:10:00,76.6,72.8,29.90,NNE,22,1.0,2.0,88,0.00,,,-99.99,WeatherLink 5.9.3,2013-02-23 22:10:00,
2013-02-24 09:16:00,78.4,73.2,29.90,ESE,105,0.0,2.0,84,0.00,,,0.00,Wunderground v.1.15,2013-02-23 22:16:00,
2013-02-24 09:21:00,79.0,73.0,29.90,NE,46,0.0,4.0,82,0.00,,,0.00,Wunderground v.1.15,2013-02-23 22:21:00,
2013-02-24 09:26:00,79.1,72.4,29.90,East,87,2.0,6.0,80,0.00,,,0.00,Wunderground v.1.15,2013-02-23 22:26:00,
2013-02-24 09:31:00,79.5,73.9,29.90,NNE,30,2.0,2.0,83,0.00,,,0.00,Wunderground v.1.15,2013-02-23 22:31:00,
2013-02-24 09:36:00,79.3,72.2,29.90,NE,44,1.0,6.0,79,0.00,,,0.00,Wunderground v.1.15,2013-02-23 22:36:00,
2013-02-24 09:41:00,79.4,72.3,29.90,ESE,120,0.0,2.0,79,0.00,,,0.00,Wunderground v.1.15,2013-02-23 22:41:00,
2013-02-24 09:46:00,79.2,72.5,29.91,NE,46,2.0,5.0,80,0.00,,,0.00,Wunderground v.1.15,2013-02-23 22:46:00,
2013-02-24 09:51:00,79.0,72.3,29.91,NNE,32,2.0,3.0,80,0.00,,,0.00,Wunderground v.1.15,2013-02-23 22:51:00,
2013-02-24 09:56:00,79.1,72.4,29.91,NE,51,1.0,4.0,80,0.00,,,0.00,Wunderground v.1.15,2013-02-23 22:56:00,
2013-02-24 10:01:00,79.5,72.8,29.91,East,82,3.0,3.0,80,0.00,,,0.00,Wunderground v.1.15,2013-02-23 23:01:00,
2013-02-24 10:06:00,80.0,72.5,29.91,NNE,27,2.0,4.0,78,0.00,,,0.00,Wunderground v.1.15,2013-02-23 23:06:00,
2013-02-24 10:11:00,80.1,72.6,29.91,ENE,76,3.0,5.0,78,0.00,,,0.00,Wunderground v.1.15,2013-02-23 23:11:00,
2013-02-24 10:16:00,80.2,72.3,29.91,NE,48,1.0,5.0,77,0.00,,,0.00,Wunderground v.1.15,2013-02-23 23:16:00,
2013-02-24 10:21:00,80.4,72.5,29.91,NE,42,2.0,2.0,77,0.00,,,0.00,Wunderground v.1.15,2013-02-23 23:21:00,
2013-02-24 10:26:00,80.3,72.4,29.91,North,8,3.0,8.0,77,0.00,,,0.00,Wunderground v.1.15,2013-02-23 23:26:00,
2013-02-24 10:31:00,80.2,72.7,29.91,ESE,102,2.0,5.0,78,0.00,,,0.00,Wunderground v.1.15,2013-02-23 23:31:00,
2013-02-24 10:36:00,80.7,72.8,29.91,ENE,76,4.0,7.0,77,0.00,,,0.00,Wunderground v.1.15,2013-02-23 23:36:00,
2013-02-24 10:41:00,80.6,72.7,29.91,East,93,1.0,6.0,77,0.00,,,0.00,Wunderground v.1.15,2013-02-23 23:41:00,
2013-02-24 10:46:00,81.1,72.8,29.91,East,91,2.0,6.0,76,0.00,,,0.00,Wunderground v.1.15,2013-02-23 23:46:00,
2013-02-24 10:51:00,81.5,73.2,29.91,East,84,1.0,2.0,76,0.00,,,0.00,Wunderground v.1.15,2013-02-23 23:51:00,
2013-02-24 10:56:00,81.9,73.6,29.91,NW,310,1.0,4.0,76,0.00,,,0.00,Wunderground v.1.15,2013-02-23 23:56:00,
2013-02-24 11:01:00,82.5,72.1,29.92,NNE,20,2.0,3.0,71,0.00,,,0.00,Wunderground v.1.15,2013-02-24 00:01:00,
2013-02-24 11:06:00,82.9,72.5,29.92,NNE,15,2.0,7.0,71,0.00,,,0.00,Wunderground v.1.15,2013-02-24 00:06:00,
2013-02-24 11:11:00,83.4,73.4,29.91,NNE,31,1.0,4.0,72,0.00,,,0.00,Wunderground v.1.15,2013-02-24 00:11:00,
2013-02-24 11:16:00,84.0,73.2,29.91,NE,53,3.0,7.0,70,0.00,,,0.00,Wunderground v.1.15,2013-02-24 00:16:00,
2013-02-24 11:21:00,84.1,74.1,29.91,NE,41,2.0,3.0,72,0.00,,,0.00,Wunderground v.1.15,2013-02-24 00:21:00,
2013-02-24 11:26:00,84.3,72.6,29.91,East,82,4.0,6.0,68,0.00,,,0.00,Wunderground v.1.15,2013-02-24 00:26:00,
2013-02-24 11:31:00,84.3,72.6,29.91,ENE,75,4.0,6.0,68,0.00,,,0.00,Wunderground v.1.15,2013-02-24 00:31:00,
2013-02-24 11:36:00,84.4,73.1,29.91,NE,44,2.0,6.0,69,0.00,,,0.00,Wunderground v.1.15,2013-02-24 00:36:00,
2013-02-24 11:41:00,84.7,73.4,29.91,NNE,17,1.0,5.0,69,0.00,,,0.00,Wunderground v.1.15,2013-02-24 00:41:00,
2013-02-24 11:46:00,84.9,74.0,29.91,NE,45,2.0,6.0,70,0.00,,,0.00,Wunderground v.1.15,2013-02-24 00:46:00,
2013-02-24 11:51:00,85.4,73.6,29.91,ENE,67,2.0,3.0,68,0.00,,,0.00,Wunderground v.1.15,2013-02-24 00:51:00,
2013-02-24 11:56:00,85.6,73.8,29.91,ENE,72,2.0,6.0,68,0.00,,,0.00,Wunderground v.1.15,2013-02-24 00:56:00,
2013-02-24 12:01:00,85.5,72.8,29.91,WNW,300,1.0,5.0,66,0.00,,,0.00,Wunderground v.1.15,2013-02-24 01:01:00,
2013-02-24 12:06:00,85.6,72.5,29.91,NE,35,2.0,5.0,65,0.00,,,0.00,Wunderground v.1.15,2013-02-24 01:06:00,
2013-02-24 12:11:00,85.7,72.6,29.91,NE,34,5.0,6.0,65,0.00,,,0.00,Wunderground v.1.15,2013-02-24 01:11:00,
2013-02-24 12:16:00,86.1,73.0,29.90,ENE,70,3.0,6.0,65,0.00,,,0.00,Wunderground v.1.15,2013-02-24 01:16:00,
2013-02-24 12:21:00,85.7,72.6,29.90,East,79,2.0,2.0,65,0.00,,,0.00,Wunderground v.1.15,2013-02-24 01:21:00,
2013-02-24 12:26:00,85.4,71.8,29.90,NE,39,3.0,5.0,64,0.00,,,0.00,Wunderground v.1.15,2013-02-24 01:26:00,
2013-02-24 12:31:00,85.7,72.6,29.90,NE,55,2.0,3.0,65,0.00,,,0.00,Wunderground v.1.15,2013-02-24 01:31:00,
2013-02-24 12:36:00,86.3,72.7,29.90,ENE,62,3.0,4.0,64,0.00,,,0.00,Wunderground v.1.15,2013-02-24 01:36:00,
2013-02-24 12:41:00,86.5,72.9,29.90,East,79,3.0,7.0,64,0.00,,,0.00,Wunderground v.1.15,2013-02-24 01:41:00,
2013-02-24 12:46:00,86.6,73.9,29.90,NE,56,4.0,7.0,66,0.00,,,0.00,Wunderground v.1.15,2013-02-24 01:46:00,
2013-02-24 12:51:00,87.0,72.4,29.90,NNE,30,1.0,5.0,62,0.00,,,0.00,Wunderground v.1.15,2013-02-24 01:51:00,
2013-02-24 12:56:00,87.5,74.7,29.89,NNW,339,1.0,5.0,66,0.00,,,0.00,Wunderground v.1.15,2013-02-24 01:56:00,
2013-02-24 13:02:00,88.2,73.0,29.89,NNE,14,2.0,5.0,61,0.00,,,0.00,Wunderground v.1.15,2013-02-24 02:02:00,
2013-02-24 13:07:00,88.2,74.0,29.89,ENE,75,3.0,5.0,63,0.00,,,0.00,Wunderground v.1.15,2013-02-24 02:07:00,
2013-02-24 13:12:00,88.1,73.0,29.89,SSE,160,7.0,9.0,61,0.00,,,0.00,Wunderground v.1.15,2013-02-24 02:12:00,
2013-02-24 13:17:00,88.2,74.5,29.88,SE,131,2.0,9.0,64,0.00,,,0.00,Wunderground v.1.15,2013-02-24 02:17:00,
2013-02-24 13:22:00,88.3,74.1,29.88,NE,44,3.0,4.0,63,0.00,,,0.00,Wunderground v.1.15,2013-02-24 02:22:00,
2013-02-24 13:27:00,88.7,74.0,29.88,SE,128,5.0,5.0,62,0.00,,,0.00,Wunderground v.1.15,2013-02-24 02:27:00,
2013-02-24 13:32:00,88.6,73.9,29.88,ENE,58,2.0,8.0,62,0.00,,,0.00,Wunderground v.1.15,2013-02-24 02:32:00,
2013-02-24 13:37:00,88.6,73.9,29.88,NNE,30,5.0,8.0,62,0.00,,,0.00,Wunderground v.1.15,2013-02-24 02:37:00,
2013-02-24 13:42:00,88.8,74.1,29.88,ENE,59,4.0,6.0,62,0.00,,,0.00,Wunderground v.1.15,2013-02-24 02:42:00,
2013-02-24 13:47:00,89.0,72.8,29.88,NE,41,2.0,7.0,59,0.00,,,0.00,Wunderground v.1.15,2013-02-24 02:47:00,
2013-02-24 13:52:00,88.7,72.5,29.88,NNW,345,4.0,4.0,59,0.00,,,0.00,Wunderground v.1.15,2013-02-24 02:52:00,
2013-02-24 13:57:00,88.8,73.1,29.88,NE,44,0.0,5.0,60,0.00,,,0.00,Wunderground v.1.15,2013-02-24 02:57:00,
2013-02-24 14:02:00,89.9,74.2,29.88,ENE,66,4.0,5.0,60,0.00,,,0.00,Wunderground v.1.15,2013-02-24 03:02:00,
2013-02-24 14:07:00,90.2,73.4,29.87,NE,48,3.0,7.0,58,0.00,,,0.00,Wunderground v.1.15,2013-02-24 03:07:00,
2013-02-24 14:12:00,90.2,73.9,29.87,NNE,20,1.0,7.0,59,0.00,,,0.00,Wunderground v.1.15,2013-02-24 03:12:00,
2013-02-24 14:17:00,90.2,73.4,29.87,NE,35,3.0,9.0,58,0.00,,,0.00,Wunderground v.1.15,2013-02-24 03:17:00,
2013-02-24 14:22:00,89.8,72.5,29.86,NNE,30,3.0,5.0,57,0.00,,,0.00,Wunderground v.1.15,2013-02-24 03:22:00,
2013-02-24 14:27:00,90.0,70.6,29.86,North,9,3.0,10.0,53,0.00,,,0.00,Wunderground v.1.15,2013-02-24 03:27:00,
2013-02-24 14:32:00,89.7,72.4,29.86,NE,46,1.0,4.0,57,0.00,,,0.00,Wunderground v.1.15,2013-02-24 03:32:00,
2013-02-24 14:37:00,89.8,72.5,29.86,NNE,30,4.0,5.0,57,0.00,,,0.00,Wunderground v.1.15,2013-02-24 03:37:00,
2013-02-24 14:42:00,89.6,72.9,29.86,ENE,66,3.0,5.0,58,0.00,,,0.00,Wunderground v.1.15,2013-02-24 03:42:00,
2013-02-24 14:47:00,88.9,72.2,29.85,North,357,3.0,6.0,58,0.00,,,0.00,Wunderground v.1.15,2013-02-24 03:47:00,
2013-02-24 14:52:00,88.3,72.2,29.86,East,94,1.0,6.0,59,0.00,,,0.00,Wunderground v.1.15,2013-02-24 03:52:00,
2013-02-24 14:57:00,87.9,72.8,29.85,ENE,63,1.0,6.0,61,0.00,,,0.00,Wunderground v.1.15,2013-02-24 03:57:00,
2013-02-24 15:02:00,87.9,72.3,29.85,North,1,2.0,4.0,60,0.00,,,0.00,Wunderground v.1.15,2013-02-24 04:02:00,
2013-02-24 15:07:00,87.7,71.6,29.85,ENE,61,1.0,6.0,59,0.00,,,0.00,Wunderground v.1.15,2013-02-24 04:07:00,
2013-02-24 15:12:00,87.9,72.8,29.84,NE,38,3.0,6.0,61,0.00,,,0.00,Wunderground v.1.15,2013-02-24 04:12:00,
2013-02-24 15:17:00,87.9,73.3,29.84,NE,49,0.0,6.0,62,0.00,,,0.00,Wunderground v.1.15,2013-02-24 04:17:00,
2013-02-24 15:22:00,88.2,73.0,29.84,NNE,13,2.0,3.0,61,0.00,,,0.00,Wunderground v.1.15,2013-02-24 04:22:00,
2013-02-24 15:27:00,88.4,72.7,29.84,NE,49,2.0,5.0,60,0.00,,,0.00,Wunderground v.1.15,2013-02-24 04:27:00,
2013-02-24 15:32:00,88.1,73.0,29.84,ENE,72,0.0,4.0,61,0.00,,,0.00,Wunderground v.1.15,2013-02-24 04:32:00,
2013-02-24 15:37:00,87.9,73.3,29.84,NE,44,2.0,4.0,62,0.00,,,0.00,Wunderground v.1.15,2013-02-24 04:37:00,
2013-02-24 15:42:00,87.5,72.9,29.84,NNE,30,2.0,4.0,62,0.00,,,0.00,Wunderground v.1.15,2013-02-24 04:42:00,
2013-02-24 15:47:00,87.1,72.5,29.84,NNE,30,1.0,6.0,62,0.00,,,0.00,Wunderground v.1.15,2013-02-24 04:47:00,
2013-02-24 15:52:00,86.9,72.8,29.84,ENE,75,1.0,5.0,63,0.00,,,0.00,Wunderground v.1.15,2013-02-24 04:52:00,
2013-02-24 15:57:00,87.0,72.9,29.84,NE,34,4.0,6.0,63,0.00,,,0.00,Wunderground v.1.15,2013-02-24 04:57:00,
2013-02-24 16:00:00,87.0,72.9,29.84,NNW,340,3.0,3.0,63,0.00,,,0.00,Wunderground v.1.15,2013-02-24 05:00:00,
2013-02-24 16:05:00,87.0,72.9,29.84,NNE,31,2.0,4.0,63,0.00,,,0.00,Wunderground v.1.15,2013-02-24 05:05:00,
2013-02-24 16:10:00,86.6,72.5,29.84,NE,54,5.0,5.0,63,0.00,,,0.00,Wunderground v.1.15,2013-02-24 05:10:00,
2013-02-24 16:15:00,86.3,73.6,29.84,NE,49,0.0,5.0,66,0.00,,,0.00,Wunderground v.1.15,2013-02-24 05:15:00,
2013-02-24 16:20:00,87.6,73.0,29.84,NE,45,2.0,5.0,62,0.00,,,-99.99,WeatherLink 5.9.3,2013-02-24 05:20:00,
2013-02-24 16:25:00,87.0,73.8,29.84,ENE,72,10.0,10.0,65,0.00,,,0.00,Wunderground v.1.15,2013-02-24 05:25:00,
2013-02-24 16:30:00,86.3,73.1,29.84,NE,45,3.0,5.0,65,0.00,,,-99.99,WeatherLink 5.9.3,2013-02-24 05:30:00,
2013-02-24 16:36:00,86.7,72.6,29.84,NE,40,6.0,13.0,63,0.00,,,0.00,Wunderground v.1.15,2013-02-24 05:36:00,
2013-02-24 16:41:00,87.3,72.7,29.84,NNE,22,5.0,11.0,62,0.00,,,-99.99,WeatherLink 5.9.3,2013-02-24 05:41:00,
2013-02-24 16:46:00,85.5,72.8,29.85,NE,34,9.0,10.0,66,0.00,,,0.00,Wunderground v.1.15,2013-02-24 05:46:00,
2013-02-24 16:51:00,84.8,72.2,29.85,NE,41,4.0,5.0,66,0.00,,,0.00,Wunderground v.1.15,2013-02-24 05:51:00,
2013-02-24 16:56:00,84.1,72.0,29.85,NE,46,3.0,10.0,67,0.00,,,0.00,Wunderground v.1.15,2013-02-24 05:56:00,
2013-02-24 17:01:00,84.0,71.9,29.85,NNE,25,5.0,6.0,67,0.00,,,0.00,Wunderground v.1.15,2013-02-24 06:01:00,
2013-02-24 17:06:00,84.2,71.6,29.85,NE,44,2.0,10.0,66,0.00,,,0.00,Wunderground v.1.15,2013-02-24 06:06:00,
2013-02-24 17:11:00,84.1,71.1,29.85,NNE,27,6.0,6.0,65,0.00,,,0.00,Wunderground v.1.15,2013-02-24 06:11:00,
2013-02-24 17:16:00,83.5,70.5,29.85,NNE,30,6.0,8.0,65,0.00,,,0.00,Wunderground v.1.15,2013-02-24 06:16:00,
2013-02-24 17:21:00,84.2,71.2,29.85,NNE,22,3.0,9.0,65,0.00,,,-99.99,WeatherLink 5.9.3,2013-02-24 06:21:00,
2013-02-24 17:26:00,82.5,71.3,29.86,NNE,32,0.0,5.0,69,0.00,,,0.00,Wunderground v.1.15,2013-02-24 06:26:00,
2013-02-24 17:31:00,82.3,71.5,29.85,NNE,32,1.0,1.0,70,0.00,,,0.00,Wunderground v.1.15,2013-02-24 06:31:00,
2013-02-24 17:36:00,82.1,71.3,29.85,NNE,27,0.0,2.0,70,0.00,,,0.00,Wunderground v.1.15,2013-02-24 06:36:00,
2013-02-24 17:41:00,81.7,71.4,29.85,NNW,345,0.0,1.0,71,0.00,,,0.00,Wunderground v.1.15,2013-02-24 06:41:00,
2013-02-24 17:46:00,81.4,71.5,29.86,NE,39,1.0,4.0,72,0.00,,,0.00,Wunderground v.1.15,2013-02-24 06:46:00,
2013-02-24 17:51:00,81.1,72.0,29.86,ENE,59,2.0,3.0,74,0.00,,,0.00,Wunderground v.1.15,2013-02-24 06:51:00,
2013-02-24 17:56:00,80.9,72.2,29.86,NE,42,0.0,3.0,75,0.00,,,0.00,Wunderground v.1.15,2013-02-24 06:56:00,
2013-02-24 18:01:00,80.6,71.9,29.86,East,99,0.0,1.0,75,0.00,,,0.00,Wunderground v.1.15,2013-02-24 07:01:00,
2013-02-24 18:06:00,80.5,72.2,29.87,NNE,32,3.0,3.0,76,0.00,,,0.00,Wunderground v.1.15,2013-02-24 07:06:00,
2013-02-24 18:11:00,80.3,72.4,29.87,East,96,1.0,4.0,77,0.00,,,0.00,Wunderground v.1.15,2013-02-24 07:11:00,
2013-02-24 18:16:00,80.2,72.3,29.87,East,80,1.0,4.0,77,0.00,,,0.00,Wunderground v.1.15,2013-02-24 07:16:00,
2013-02-24 18:21:00,79.9,72.4,29.87,ENE,61,4.0,7.0,78,0.00,,,0.00,Wunderground v.1.15,2013-02-24 07:21:00,
2013-02-24 18:26:00,79.7,72.6,29.87,ENE,68,2.0,7.0,79,0.00,,,0.00,Wunderground v.1.15,2013-02-24 07:26:00,
2013-02-24 18:31:00,79.5,72.8,29.87,NE,34,2.0,2.0,80,0.00,,,0.00,Wunderground v.1.15,2013-02-24 07:31:00,
2013-02-24 18:36:00,79.4,73.1,29.87,NE,42,1.0,4.0,81,0.00,,,0.00,Wunderground v.1.15,2013-02-24 07:36:00,
2013-02-24 18:41:00,79.6,73.3,29.87,NE,47,0.0,1.0,81,0.00,,,0.00,Wunderground v.1.15,2013-02-24 07:41:00,
2013-02-24 18:46:00,80.0,73.6,29.87,East,96,2.0,2.0,81,0.00,,,0.00,Wunderground v.1.15,2013-02-24 07:46:00,
2013-02-24 18:51:00,80.2,73.8,29.87,NE,51,0.0,4.0,81,0.00,,,0.00,Wunderground v.1.15,2013-02-24 07:51:00,
2013-02-24 18:56:00,80.2,73.8,29.87,NE,40,0.0,5.0,81,0.00,,,0.00,Wunderground v.1.15,2013-02-24 07:56:00,
2013-02-24 19:01:00,80.0,73.6,29.87,ENE,58,2.0,4.0,81,0.00,,,0.00,Wunderground v.1.15,2013-02-24 08:01:00,
2013-02-24 19:06:00,79.8,73.8,29.87,East,91,2.0,5.0,82,0.00,,,0.00,Wunderground v.1.15,2013-02-24 08:06:00,
2013-02-24 19:11:00,79.6,74.0,29.88,ENE,68,2.0,4.0,83,0.00,,,0.00,Wunderground v.1.15,2013-02-24 08:11:00,
2013-02-24 19:16:00,79.3,73.7,29.88,East,82,1.0,4.0,83,0.00,,,0.00,Wunderground v.1.15,2013-02-24 08:16:00,
2013-02-24 19:21:00,79.1,73.8,29.88,ENE,72,1.0,1.0,84,0.00,,,0.00,Wunderground v.1.15,2013-02-24 08:21:00,
2013-02-24 19:26:00,78.9,74.0,29.88,NE,54,0.0,2.0,85,0.00,,,0.00,Wunderground v.1.15,2013-02-24 08:26:00,
2013-02-24 19:31:00,78.6,73.7,29.88,ENE,73,3.0,3.0,85,0.00,,,0.00,Wunderground v.1.15,2013-02-24 08:31:00,
2013-02-24 19:36:00,78.4,73.9,29.88,ENE,68,2.0,3.0,86,0.00,,,0.00,Wunderground v.1.15,2013-02-24 08:36:00,
2013-02-24 19:41:00,78.1,73.6,29.89,NE,38,1.0,2.0,86,0.00,,,0.00,Wunderground v.1.15,2013-02-24 08:41:00,
2013-02-24 19:46:00,77.9,73.4,29.89,NNE,32,3.0,5.0,86,0.00,,,0.00,Wunderground v.1.15,2013-02-24 08:46:00,
2013-02-24 19:51:00,77.8,73.3,29.90,NE,42,0.0,2.0,86,0.00,,,0.00,Wunderground v.1.15,2013-02-24 08:51:00,
2013-02-24 19:56:00,77.6,73.1,29.90,NE,42,0.0,2.0,86,0.00,,,0.00,Wunderground v.1.15,2013-02-24 08:56:00,
2013-02-24 20:01:00,77.3,72.8,29.91,NE,38,2.0,3.0,86,0.00,,,0.00,Wunderground v.1.15,2013-02-24 09:01:00,
2013-02-24 20:06:00,77.3,72.4,29.91,ENE,70,0.0,3.0,85,0.00,,,0.00,Wunderground v.1.15,2013-02-24 09:06:00,
2013-02-24 20:11:00,77.4,72.5,29.91,East,98,2.0,3.0,85,0.00,,,0.00,Wunderground v.1.15,2013-02-24 09:11:00,
2013-02-24 20:16:00,77.4,72.5,29.91,East,101,0.0,3.0,85,0.00,,,0.00,Wunderground v.1.15,2013-02-24 09:16:00,
2013-02-24 20:21:00,77.2,72.3,29.91,NE,48,0.0,1.0,85,0.00,,,0.00,Wunderground v.1.15,2013-02-24 09:21:00,
2013-02-24 20:26:00,77.1,72.2,29.91,NE,45,0.0,4.0,85,0.00,,,0.00,Wunderground v.1.15,2013-02-24 09:26:00,
2013-02-24 20:32:00,76.9,72.0,29.91,ENE,61,0.0,1.0,85,0.00,,,0.00,Wunderground v.1.15,2013-02-24 09:32:00,
2013-02-24 20:37:00,76.8,71.9,29.92,ENE,62,0.0,2.0,85,0.00,,,0.00,Wunderground v.1.15,2013-02-24 09:37:00,
2013-02-24 20:42:00,76.7,71.8,29.92,NE,45,0.0,2.0,85,0.00,,,0.00,Wunderground v.1.15,2013-02-24 09:42:00,
2013-02-24 20:47:00,76.4,71.6,29.92,NE,45,0.0,2.0,85,0.00,,,0.00,Wunderground v.1.15,2013-02-24 09:47:00,
2013-02-24 20:52:00,76.2,71.4,29.92,NE,47,0.0,0.0,85,0.00,,,0.00,Wunderground v.1.15,2013-02-24 09:52:00,
2013-02-24 20:57:00,76.2,71.7,29.92,NNE,21,2.0,4.0,86,0.00,,,0.00,Wunderground v.1.15,2013-02-24 09:57:00,
2013-02-24 21:02:00,76.2,71.7,29.92,NE,52,0.0,1.0,86,0.00,,,0.00,Wunderground v.1.15,2013-02-24 10:02:00,
2013-02-24 21:07:00,76.2,71.7,29.93,ENE,62,1.0,3.0,86,0.00,,,0.00,Wunderground v.1.15,2013-02-24 10:07:00,
2013-02-24 21:12:00,76.2,71.7,29.93,ESE,103,1.0,1.0,86,0.00,,,0.00,Wunderground v.1.15,2013-02-24 10:12:00,
2013-02-24 21:17:00,76.2,71.7,29.93,NNE,28,1.0,2.0,86,0.00,,,0.00,Wunderground v.1.15,2013-02-24 10:17:00,
2013-02-24 21:22:00,76.1,71.6,29.93,ENE,69,2.0,5.0,86,0.00,,,0.00,Wunderground v.1.15,2013-02-24 10:22:00,
2013-02-24 21:27:00,76.1,71.9,29.93,ENE,77,3.0,5.0,87,0.00,,,0.00,Wunderground v.1.15,2013-02-24 10:27:00,
2013-02-24 21:32:00,76.0,71.8,29.93,NE,51,1.0,2.0,87,0.00,,,0.00,Wunderground v.1.15,2013-02-24 10:32:00,
2013-02-24 21:37:00,75.8,71.7,29.93,South,170,0.0,2.0,87,0.00,,,0.00,Wunderground v.1.15,2013-02-24 10:37:00,
2013-02-24 21:42:00,75.7,71.6,29.94,ENE,70,0.0,1.0,87,0.00,,,0.00,Wunderground v.1.15,2013-02-24 10:42:00,
2013-02-24 21:47:00,75.7,71.6,29.94,NE,56,0.0,3.0,87,0.00,,,0.00,Wunderground v.1.15,2013-02-24 10:47:00,
2013-02-24 21:52:00,75.5,71.4,29.94,ENE,61,1.0,3.0,87,0.00,,,0.00,Wunderground v.1.15,2013-02-24 10:52:00,
2013-02-24 21:57:00,75.4,71.3,29.94,ENE,60,0.0,4.0,87,0.00,,,0.00,Wunderground v.1.15,2013-02-24 10:57:00,
2013-02-24 22:02:00,75.3,71.2,29.94,East,91,0.0,2.0,87,0.00,,,0.00,Wunderground v.1.15,2013-02-24 11:02:00,
2013-02-24 22:07:00,75.1,71.0,29.95,ESE,108,1.0,4.0,87,0.00,,,0.00,Wunderground v.1.15,2013-02-24 11:07:00,
2013-02-24 22:12:00,75.1,71.0,29.95,East,82,2.0,2.0,87,0.00,,,0.00,Wunderground v.1.15,2013-02-24 11:12:00,
2013-02-24 22:17:00,75.0,70.9,29.95,ENE,63,0.0,4.0,87,0.00,,,0.00,Wunderground v.1.15,2013-02-24 11:17:00,
2013-02-24 22:22:00,74.9,70.8,29.95,ENE,63,0.0,1.0,87,0.00,,,0.00,Wunderground v.1.15,2013-02-24 11:22:00,
2013-02-24 22:27:00,74.8,70.7,29.95,ENE,68,0.0,2.0,87,0.00,,,0.00,Wunderground v.1.15,2013-02-24 11:27:00,
2013-02-24 22:32:00,74.7,70.6,29.95,East,87,0.0,1.0,87,0.00,,,0.00,Wunderground v.1.15,2013-02-24 11:32:00,
2013-02-24 22:37:00,74.6,70.8,29.95,East,89,1.0,1.0,88,0.00,,,0.00,Wunderground v.1.15,2013-02-24 11:37:00,
2013-02-24 22:42:00,74.5,70.7,29.95,ESE,112,0.0,1.0,88,0.00,,,0.00,Wunderground v.1.15,2013-02-24 11:42:00,
2013-02-24 22:47:00,74.4,70.6,29.95,SE,135,1.0,2.0,88,0.00,,,0.00,Wunderground v.1.15,2013-02-24 11:47:00,
2013-02-24 22:52:00,74.3,70.5,29.95,NE,52,0.0,1.0,88,0.00,,,0.00,Wunderground v.1.15,2013-02-24 11:52:00,
2013-02-24 22:57:00,74.3,70.5,29.95,ENE,69,0.0,2.0,88,0.00,,,0.00,Wunderground v.1.15,2013-02-24 11:57:00,
2013-02-24 23:02:00,74.2,70.4,29.95,NE,41,0.0,0.0,88,0.00,,,0.00,Wunderground v.1.15,2013-02-24 12:02:00,
2013-02-24 23:07:00,74.1,70.3,29.95,ENE,76,0.0,2.0,88,0.00,,,0.00,Wunderground v.1.15,2013-02-24 12:07:00,
2013-02-24 23:12:00,74.0,70.2,29.95,ENE,68,0.0,2.0,88,0.00,,,0.00,Wunderground v.1.15,2013-02-24 12:12:00,
2013-02-24 23:17:00,74.0,70.2,29.95,SE,139,0.0,2.0,88,0.00,,,0.00,Wunderground v.1.15,2013-02-24 12:17:00,
2013-02-24 23:22:00,73.8,70.4,29.96,NE,51,0.0,1.0,89,0.00,,,0.00,Wunderground v.1.15,2013-02-24 12:22:00,
2013-02-24 23:27:00,73.7,70.3,29.96,SSE,159,0.0,1.0,89,0.00,,,0.00,Wunderground v.1.15,2013-02-24 12:27:00,
2013-02-24 23:32:00,73.6,70.2,29.96,SSE,159,0.0,0.0,89,0.00,,,0.00,Wunderground v.1.15,2013-02-24 12:32:00,
2013-02-24 23:38:00,73.6,70.2,29.95,East,82,0.0,1.0,89,0.00,,,0.00,Wunderground v.1.15,2013-02-24 12:38:00,
2013-02-24 23:43:00,73.5,70.1,29.96,SSE,159,0.0,1.0,89,0.00,,,0.00,Wunderground v.1.15,2013-02-24 12:43:00,
2013-02-24 23:48:00,73.5,70.1,29.96,SSE,162,0.0,1.0,89,0.00,,,0.00,Wunderground v.1.15,2013-02-24 12:48:00,
2013-02-24 23:53:00,73.4,70.0,29.95,East,79,1.0,1.0,89,0.00,,,0.00,Wunderground v.1.15,2013-02-24 12:53:00,
2013-02-24 23:58:00,73.4,70.0,29.96,ENE,65,0.0,1.0,89,0.00,,,0.00,Wunderground v.1.15,2013-02-24 12:58:00,